MFN weather

Milford Sound Airport
Southland Region, New Zealand

Public forecast

Using degrees Celsius for public forecast. Weather courtesy of forecast.io.

Closest aviation weather report (METAR) to Milford Sound Airport

Closest report is Christchurch International Airport, 211.1 nm (390.9 km) ENE. Retrieved 2020/05/26 06:00 UTC (16 seconds ago):

NZCH 260600Z AUTO 27002KT 9999 NCD 08/07 Q1023 NOSIG

Closest aviation forecast (TAF) to Milford Sound Airport

Forecast is more than 6 hours old.

Closest forecast is Queenstown International Airport, 40.5 nm (75.1 km) ESE. Retrieved 2020/05/25 18:21 UTC (12 hours ago):

TAF NZQN 251738Z 2518/2612 04005KT 9999 SCT018 BKN028 BECMG 2523/2601 18010KT